createdAt,value
2023-02-06T00:01:38.545Z,27.70
2023-02-06T00:04:07.081Z,28.53
2023-02-06T00:06:35.153Z,28.80
2023-02-06T00:09:03.630Z,27.87
2023-02-06T00:11:31.758Z,28.30
2023-02-06T00:14:01.361Z,28.73
2023-02-06T00:16:31.597Z,29.00
2023-02-06T00:19:00.999Z,28.00
2023-02-06T00:21:30.611Z,29.13
2023-02-06T00:24:01.036Z,28.37
2023-02-06T00:26:29.092Z,28.70
2023-02-06T00:28:57.088Z,28.90
2023-02-06T00:31:26.723Z,29.27
2023-02-06T00:33:54.838Z,27.93
2023-02-06T00:36:23.005Z,28.03
2023-02-06T00:38:51.045Z,28.50
2023-02-06T00:41:19.171Z,28.67
2023-02-06T00:43:47.511Z,28.47
2023-02-06T00:46:15.564Z,28.37
2023-02-06T00:48:45.094Z,27.83
2023-02-06T00:51:13.066Z,27.73
2023-02-06T00:53:41.110Z,28.40
2023-02-06T00:56:09.286Z,28.33
2023-02-06T00:58:37.455Z,27.80
2023-02-06T01:01:05.513Z,28.40
2023-02-06T01:03:34.486Z,28.20
2023-02-06T01:06:04.174Z,28.27
2023-02-06T01:08:35.212Z,28.17
2023-02-06T01:11:03.357Z,28.53
2023-02-06T01:13:31.712Z,28.10
2023-02-06T01:15:59.734Z,27.77
2023-02-06T01:18:27.889Z,28.63
2023-02-06T01:20:55.819Z,28.43
2023-02-06T01:23:26.065Z,27.47
2023-02-06T01:25:54.121Z,28.13
2023-02-06T01:28:21.975Z,27.80
2023-02-06T01:30:50.379Z,28.03
2023-02-06T01:33:18.504Z,28.67
2023-02-06T01:35:47.057Z,29.10
2023-02-06T01:38:15.108Z,27.83
2023-02-06T01:40:44.682Z,27.93
2023-02-06T01:43:18.916Z,29.23
2023-02-06T01:45:48.032Z,28.83
2023-02-06T01:48:20.129Z,28.97
2023-02-06T01:50:51.100Z,28.03
2023-02-06T01:53:20.066Z,28.60
2023-02-06T01:55:51.756Z,28.80
2023-02-06T01:58:27.564Z,28.07
2023-02-06T02:00:56.524Z,28.87
2023-02-06T02:03:24.902Z,28.50
2023-02-06T02:05:57.074Z,28.77
2023-02-06T02:08:28.858Z,29.20
2023-02-06T02:10:59.847Z,29.33
2023-02-06T02:13:29.062Z,28.20
2023-02-06T02:16:02.095Z,28.53
2023-02-06T02:18:50.012Z,28.20
2023-02-06T02:21:52.444Z,27.43
2023-02-06T02:24:26.643Z,28.23
2023-02-06T02:27:28.357Z,29.07
2023-02-06T02:30:25.962Z,28.13
2023-02-06T02:33:15.180Z,27.90
2023-02-06T02:35:52.891Z,28.00
2023-02-06T02:38:32.114Z,28.83
2023-02-06T02:41:08.294Z,28.23
2023-02-06T02:43:44.072Z,28.97
2023-02-06T02:46:20.902Z,28.07
2023-02-06T02:48:53.280Z,27.90
2023-02-06T02:51:23.455Z,29.17
2023-02-06T02:53:51.522Z,29.07
2023-02-06T02:56:21.869Z,27.70
2023-02-06T02:58:54.089Z,27.90
2023-02-06T03:01:27.148Z,29.00
2023-02-06T03:03:56.876Z,28.00
2023-02-06T03:06:42.066Z,28.13
2023-02-06T03:09:17.454Z,28.23
2023-02-06T03:11:55.283Z,28.57
2023-02-06T03:14:29.492Z,28.87
2023-02-06T03:17:03.885Z,27.97
2023-02-06T03:19:36.476Z,27.93
2023-02-06T03:22:06.907Z,28.10
2023-02-06T03:24:40.433Z,28.27
2023-02-06T03:27:11.492Z,28.67
2023-02-06T03:29:40.649Z,28.97
2023-02-06T03:32:13.602Z,28.57
2023-02-06T03:34:47.569Z,27.97
2023-02-06T03:37:17.449Z,29.07
2023-02-06T03:39:45.612Z,27.57
2023-02-06T03:42:16.089Z,28.07
2023-02-06T03:44:48.936Z,28.70
2023-02-06T03:47:19.030Z,28.63
2023-02-06T03:49:49.211Z,27.90
2023-02-06T03:52:22.866Z,29.40
2023-02-06T03:54:54.756Z,28.63
2023-02-06T03:57:24.269Z,29.17
2023-02-06T03:59:52.710Z,29.80
2023-02-06T04:02:22.597Z,28.43
2023-02-06T04:04:50.702Z,28.40
2023-02-06T04:07:24.522Z,29.03
2023-02-06T04:09:52.844Z,28.53
2023-02-06T04:12:21.475Z,29.23
2023-02-06T04:14:50.160Z,28.93
2023-02-06T04:17:36.081Z,28.83
2023-02-06T04:20:05.641Z,28.40
2023-02-06T04:22:35.249Z,28.57
2023-02-06T04:25:03.278Z,28.77
2023-02-06T04:27:31.645Z,27.60
2023-02-06T04:30:00.166Z,28.60
2023-02-06T04:32:28.341Z,27.67
2023-02-06T04:34:56.403Z,28.07
2023-02-06T04:37:24.554Z,27.93
2023-02-06T04:39:54.187Z,28.33
2023-02-06T04:42:22.284Z,27.97
2023-02-06T04:44:50.472Z,28.97
2023-02-06T04:47:18.894Z,28.90
2023-02-06T04:49:47.235Z,28.27
2023-02-06T04:52:15.316Z,27.87
2023-02-06T04:54:43.467Z,28.43
2023-02-06T04:57:15.812Z,29.07
2023-02-06T04:59:43.866Z,28.63
2023-02-06T05:02:12.303Z,28.47
2023-02-06T05:04:40.772Z,28.73
2023-02-06T05:07:09.331Z,28.40
2023-02-06T05:09:37.403Z,29.27
2023-02-06T05:12:05.842Z,28.93
2023-02-06T05:14:35.261Z,27.90
2023-02-06T05:17:03.234Z,29.40
2023-02-06T05:19:31.641Z,28.47
2023-02-06T05:21:59.473Z,28.90
2023-02-06T05:24:27.533Z,28.73
2023-02-06T05:26:57.914Z,27.47
2023-02-06T05:29:26.389Z,28.63
2023-02-06T05:31:55.970Z,28.67
2023-02-06T05:34:23.927Z,28.17
2023-02-06T05:36:51.829Z,27.27
2023-02-06T05:39:22.414Z,27.13
2023-02-06T05:41:50.875Z,27.57
2023-02-06T05:44:18.902Z,27.77
2023-02-06T05:46:48.402Z,26.93
2023-02-06T05:49:18.397Z,26.30
2023-02-06T05:51:46.534Z,25.53
2023-02-06T05:54:16.970Z,25.97
2023-02-06T05:56:45.249Z,26.60
2023-02-06T05:59:13.412Z,26.10
2023-02-06T06:01:41.406Z,26.23
2023-02-06T06:04:09.720Z,26.17
2023-02-06T06:06:39.234Z,25.30
2023-02-06T06:09:07.162Z,26.17
2023-02-06T06:11:35.221Z,26.70
2023-02-06T06:14:03.550Z,25.87
2023-02-06T06:16:32.497Z,25.53
2023-02-06T06:19:01.811Z,24.13
2023-02-06T06:21:30.537Z,23.97
2023-02-06T06:24:00.138Z,23.87
2023-02-06T06:26:28.699Z,23.67
2023-02-06T06:28:57.677Z,24.40
2023-02-06T06:31:25.911Z,24.43
2023-02-06T06:33:54.332Z,24.73
2023-02-06T06:36:22.739Z,24.50
2023-02-06T06:38:50.691Z,24.33
2023-02-06T06:41:20.476Z,24.07
2023-02-06T06:43:51.229Z,24.20
2023-02-06T06:46:19.910Z,24.20
2023-02-06T06:48:47.957Z,23.97
2023-02-06T06:51:16.187Z,24.60
2023-02-06T06:53:44.218Z,24.73
2023-02-06T06:56:15.133Z,23.80
2023-02-06T06:58:44.722Z,24.23
2023-02-06T07:01:12.844Z,24.40
2023-02-06T07:03:44.251Z,24.97
2023-02-06T07:06:12.905Z,24.40
2023-02-06T07:08:42.041Z,23.90
2023-02-06T07:11:10.582Z,23.37
2023-02-06T07:13:39.292Z,25.50
2023-02-06T07:16:09.438Z,23.60
2023-02-06T07:18:41.294Z,24.57
2023-02-06T07:21:09.876Z,24.27
2023-02-06T07:23:38.362Z,24.03
2023-02-06T07:26:07.089Z,23.90
2023-02-06T07:28:35.994Z,24.43
2023-02-06T07:31:05.707Z,23.83
2023-02-06T07:33:36.028Z,23.70
2023-02-06T07:36:04.448Z,23.30
2023-02-06T07:38:33.081Z,23.73
2023-02-06T07:41:04.291Z,23.63
2023-02-06T07:43:33.167Z,24.27
2023-02-06T07:46:01.916Z,23.37
2023-02-06T07:48:30.870Z,24.43
2023-02-06T07:51:06.320Z,23.80
2023-02-06T07:53:34.691Z,23.93
2023-02-06T07:56:03.019Z,24.20
2023-02-06T07:58:34.101Z,23.83
2023-02-06T08:01:05.126Z,24.80
2023-02-06T08:03:33.849Z,25.00
2023-02-06T08:06:09.271Z,23.50
2023-02-06T08:08:38.435Z,23.33
2023-02-06T08:11:07.928Z,24.20
2023-02-06T08:13:36.248Z,22.63
2023-02-06T08:16:09.912Z,24.17
2023-02-06T08:18:38.595Z,23.50
2023-02-06T08:21:11.289Z,23.67
2023-02-06T08:23:39.615Z,23.93
2023-02-06T08:26:13.950Z,23.63
2023-02-06T08:28:42.731Z,23.87
2023-02-06T08:31:13.098Z,24.30
2023-02-06T08:33:41.692Z,24.83
2023-02-06T08:36:12.622Z,24.70
2023-02-06T08:38:41.458Z,24.87
2023-02-06T08:41:18.538Z,24.60
2023-02-06T08:43:46.985Z,24.77
2023-02-06T08:46:15.883Z,24.07
2023-02-06T08:48:44.049Z,25.37
2023-02-06T08:51:13.712Z,25.17
2023-02-06T08:53:41.606Z,26.37
2023-02-06T08:56:12.663Z,25.40
2023-02-06T08:58:50.057Z,25.77
2023-02-06T09:01:18.088Z,25.50
2023-02-06T09:03:47.083Z,25.40
2023-02-06T09:06:17.628Z,24.50
2023-02-06T09:08:45.921Z,24.47
2023-02-06T09:11:18.219Z,24.90
2023-02-06T09:13:49.340Z,25.47
2023-02-06T09:16:19.318Z,24.20
2023-02-06T09:18:49.799Z,24.10
2023-02-06T09:21:23.284Z,24.50
2023-02-06T09:23:55.578Z,24.17
2023-02-06T09:26:25.755Z,24.93
2023-02-06T09:28:54.255Z,25.13
2023-02-06T09:31:22.587Z,24.70
2023-02-06T09:33:50.881Z,24.40
2023-02-06T09:36:21.700Z,24.63
2023-02-06T09:38:51.449Z,24.80
2023-02-06T09:41:25.544Z,25.70
2023-02-06T09:43:57.497Z,24.30
2023-02-06T09:46:34.397Z,24.77
2023-02-06T09:49:08.373Z,25.10
2023-02-06T09:51:51.622Z,24.87
2023-02-06T09:54:29.435Z,25.20
2023-02-06T09:57:03.881Z,25.07
2023-02-06T09:59:36.613Z,24.53
2023-02-06T10:02:28.084Z,24.50
2023-02-06T10:05:02.353Z,24.30
2023-02-06T10:07:51.111Z,24.93
2023-02-06T10:10:26.126Z,25.50
2023-02-06T10:13:01.426Z,24.07
2023-02-06T10:15:35.040Z,25.00
2023-02-06T10:18:10.184Z,24.43
2023-02-06T10:20:44.582Z,23.87
2023-02-06T10:23:30.502Z,23.97
2023-02-06T10:26:07.048Z,23.17
2023-02-06T10:28:36.776Z,24.33
2023-02-06T10:31:33.527Z,23.60
2023-02-06T10:34:27.474Z,24.00
2023-02-06T10:37:04.484Z,24.27
2023-02-06T10:39:59.002Z,24.13
2023-02-06T10:42:43.218Z,22.87
2023-02-06T10:45:20.284Z,23.03
2023-02-06T10:47:57.122Z,24.13
2023-02-06T10:50:29.448Z,23.60
2023-02-06T10:53:00.797Z,24.27
2023-02-06T10:55:49.379Z,22.97
2023-02-06T10:58:21.436Z,23.47
2023-02-06T11:00:51.224Z,22.87
2023-02-06T11:30:34.905Z,20.23
2023-02-06T11:33:06.281Z,21.00
2023-02-06T11:35:39.660Z,19.88
2023-02-06T11:38:15.284Z,21.92
2023-02-06T11:40:44.542Z,21.48
2023-02-06T11:43:22.539Z,23.42
2023-02-06T11:46:07.349Z,23.80
2023-02-06T11:48:39.158Z,23.67
2023-02-06T11:51:08.586Z,21.88
2023-02-06T11:53:37.375Z,22.52
2023-02-06T11:56:15.952Z,21.13
2023-02-06T11:58:44.209Z,20.55
2023-02-06T12:01:21.107Z,21.75
2023-02-06T12:03:57.825Z,22.60
2023-02-06T12:06:31.797Z,22.85
2023-02-06T12:09:02.635Z,23.30
2023-02-06T12:11:34.906Z,24.25
2023-02-06T12:14:11.375Z,22.88
2023-02-06T12:16:45.533Z,22.77
2023-02-06T12:19:25.301Z,23.33
2023-02-06T12:21:58.060Z,23.25
2023-02-06T12:24:31.341Z,23.08
2023-02-06T12:27:02.869Z,23.45
2023-02-06T12:29:36.319Z,23.38
2023-02-06T12:32:14.957Z,22.70
2023-02-06T12:34:53.909Z,24.40
2023-02-06T12:37:37.870Z,23.88
2023-02-06T12:40:14.526Z,25.63
2023-02-06T12:42:48.777Z,25.20
2023-02-06T12:45:36.466Z,24.08
2023-02-06T12:48:16.249Z,26.00
2023-02-06T12:50:49.370Z,26.65
2023-02-06T12:53:21.421Z,25.85
2023-02-06T12:55:54.746Z,24.67
2023-02-06T12:58:28.446Z,24.05
2023-02-06T13:01:27.620Z,24.75
2023-02-06T13:04:04.507Z,25.13
2023-02-06T13:06:43.980Z,24.75
2023-02-06T13:09:21.554Z,24.77
2023-02-06T13:11:49.817Z,24.83
2023-02-06T13:14:21.085Z,23.80
2023-02-06T13:16:59.383Z,24.30
2023-02-06T13:19:50.758Z,24.23
2023-02-06T13:22:49.492Z,23.80
2023-02-06T13:25:48.997Z,23.13
2023-02-06T13:28:57.223Z,22.23
2023-02-06T13:31:31.105Z,20.95
2023-02-06T13:34:15.389Z,19.75
2023-02-06T13:36:53.860Z,17.83
2023-02-06T13:39:31.877Z,20.60
2023-02-06T13:42:24.931Z,20.15
2023-02-06T13:44:56.342Z,19.42
2023-02-06T13:48:13.618Z,20.45
2023-02-06T13:51:05.736Z,16.30
2023-02-06T13:54:04.490Z,15.70
2023-02-06T13:56:50.552Z,15.27
2023-02-06T13:59:22.836Z,14.30
2023-02-06T14:01:51.150Z,13.48
2023-02-06T14:04:24.893Z,12.88
2023-02-06T14:07:08.725Z,12.05
2023-02-06T14:09:51.203Z,10.63
2023-02-06T14:12:35.608Z,10.90
2023-02-06T14:15:17.962Z,9.18
2023-02-06T14:18:20.886Z,10.30
2023-02-06T14:20:56.424Z,5.15
2023-02-06T14:23:33.988Z,4.40
2023-02-06T14:26:16.461Z,3.78
2023-02-06T14:28:52.887Z,3.50
2023-02-06T14:31:45.039Z,4.00
2023-02-06T14:34:38.613Z,3.90
2023-02-06T14:37:42.934Z,3.97
2023-02-06T14:40:20.117Z,3.47
2023-02-06T14:42:51.109Z,4.00
2023-02-06T14:45:29.351Z,3.88
2023-02-06T14:48:02.075Z,3.60
2023-02-06T14:50:33.070Z,4.22
2023-02-06T14:53:09.710Z,3.42
2023-02-06T14:55:40.402Z,3.97
2023-02-06T14:58:20.756Z,3.08
2023-02-06T15:00:48.936Z,4.50
2023-02-06T15:03:19.630Z,3.28
2023-02-06T15:05:48.319Z,3.38
2023-02-06T15:08:21.928Z,3.60
2023-02-06T15:10:58.738Z,3.63
2023-02-06T15:13:35.046Z,3.65
2023-02-06T15:16:05.043Z,3.85
2023-02-06T15:18:34.503Z,5.00
2023-02-06T15:21:05.081Z,4.43
2023-02-06T15:23:44.602Z,3.85
2023-02-06T15:26:23.558Z,4.50
2023-02-06T15:28:59.055Z,3.78
2023-02-06T15:31:30.667Z,4.00
2023-02-06T15:34:01.013Z,4.47
2023-02-06T15:36:33.165Z,4.20
2023-02-06T15:39:02.498Z,3.70
2023-02-06T15:41:31.695Z,3.95
2023-02-06T15:44:04.993Z,3.92
2023-02-06T15:46:33.906Z,4.53
2023-02-06T15:49:01.870Z,4.43
2023-02-06T15:51:31.895Z,4.05
2023-02-06T15:54:09.828Z,4.10
2023-02-06T15:56:41.209Z,4.32
2023-02-06T15:59:20.811Z,4.10
2023-02-06T16:01:50.315Z,2.67
2023-02-06T16:04:24.319Z,3.95
2023-02-06T16:07:03.296Z,3.60
2023-02-06T16:09:33.351Z,3.42
2023-02-06T16:12:01.629Z,3.45
2023-02-06T16:14:36.108Z,2.95
2023-02-06T16:17:06.678Z,2.88
2023-02-06T16:19:42.568Z,2.75
2023-02-06T16:22:28.886Z,3.10
2023-02-06T16:25:12.843Z,3.47
2023-02-06T16:27:45.673Z,3.00
2023-02-06T16:30:28.438Z,2.63
2023-02-06T16:32:58.568Z,3.38
2023-02-06T16:35:27.729Z,2.60
2023-02-06T16:37:55.821Z,3.10
2023-02-06T16:40:26.125Z,3.30
2023-02-06T16:42:54.709Z,3.25
2023-02-06T16:45:27.154Z,3.67
2023-02-06T16:47:55.666Z,3.17
2023-02-06T16:50:23.992Z,2.97
2023-02-06T16:52:54.421Z,4.03
2023-02-06T16:55:24.768Z,3.42
2023-02-06T16:57:55.176Z,4.10
2023-02-06T17:00:28.946Z,3.72
2023-02-06T17:02:58.835Z,3.72
2023-02-06T17:05:28.173Z,4.35
2023-02-06T17:07:56.408Z,4.07
2023-02-06T17:10:26.955Z,5.18
2023-02-06T17:12:55.772Z,4.90
2023-02-06T17:15:25.193Z,5.07
2023-02-06T17:17:54.779Z,5.85
2023-02-06T17:20:34.504Z,5.28
2023-02-06T17:23:02.751Z,5.63
2023-02-06T17:25:31.721Z,6.40
2023-02-06T17:28:00.247Z,6.75
2023-02-06T17:30:30.050Z,7.40
2023-02-06T17:32:58.141Z,7.27
2023-02-06T17:35:26.447Z,8.60
2023-02-06T17:37:54.539Z,9.93
2023-02-06T17:40:26.214Z,10.93
2023-02-06T17:42:54.590Z,10.20
2023-02-06T17:45:22.676Z,12.63
2023-02-06T17:47:52.362Z,13.57
2023-02-06T17:50:22.583Z,13.27
2023-02-06T17:52:52.677Z,14.13
2023-02-06T17:55:20.758Z,14.90
2023-02-06T17:57:48.751Z,15.67
2023-02-06T18:00:19.035Z,16.73
2023-02-06T18:02:47.510Z,17.90
2023-02-06T18:05:17.338Z,18.43
2023-02-06T18:07:45.451Z,19.00
2023-02-06T18:10:13.855Z,19.00
2023-02-06T18:12:41.731Z,19.27
2023-02-06T18:15:12.890Z,19.37
2023-02-06T18:17:41.359Z,20.13
2023-02-06T18:20:11.483Z,20.97
2023-02-06T18:22:42.272Z,21.10
2023-02-06T18:25:13.083Z,21.40
2023-02-06T18:27:42.771Z,21.40
2023-02-06T18:30:12.179Z,21.97
2023-02-06T18:32:40.667Z,22.17
2023-02-06T18:35:09.565Z,22.47
2023-02-06T18:37:38.316Z,22.30
2023-02-06T18:40:11.796Z,23.20
2023-02-06T18:42:50.993Z,23.80
2023-02-06T18:45:19.511Z,22.63
2023-02-06T18:47:47.643Z,22.87
2023-02-06T18:50:16.173Z,22.67
2023-02-06T18:52:44.160Z,22.90
2023-02-06T18:55:13.518Z,23.47
2023-02-06T18:57:41.971Z,24.17
2023-02-06T19:00:13.662Z,24.77
2023-02-06T19:02:41.739Z,25.57
2023-02-06T19:05:15.765Z,27.40
2023-02-06T19:07:44.729Z,27.20
2023-02-06T19:10:16.231Z,27.23
2023-02-06T19:12:44.376Z,28.23
2023-02-06T19:15:12.805Z,28.40
2023-02-06T19:17:40.966Z,27.20
2023-02-06T19:20:10.451Z,26.97
2023-02-06T19:22:39.714Z,26.73
2023-02-06T19:25:13.333Z,27.50
2023-02-06T19:27:43.809Z,27.77
2023-02-06T19:30:13.358Z,28.90
2023-02-06T19:32:41.479Z,29.30
2023-02-06T19:35:11.906Z,29.13
2023-02-06T19:37:40.285Z,29.47
2023-02-06T19:40:09.187Z,30.27
2023-02-06T19:42:37.093Z,29.80
2023-02-06T19:45:07.533Z,29.87
2023-02-06T19:47:36.292Z,30.70
2023-02-06T19:50:05.083Z,31.83
2023-02-06T19:52:35.159Z,30.53
2023-02-06T19:55:03.736Z,29.27
2023-02-06T19:57:31.789Z,28.67
2023-02-06T20:00:00.044Z,29.20
2023-02-06T20:02:29.636Z,30.93
2023-02-06T20:04:57.863Z,29.40
2023-02-06T20:07:26.064Z,28.77
2023-02-06T20:09:55.844Z,29.10
2023-02-06T20:12:23.774Z,29.00
2023-02-06T20:14:51.943Z,29.33
2023-02-06T20:17:20.047Z,29.07
2023-02-06T20:19:49.788Z,29.33
2023-02-06T20:22:17.840Z,29.40
2023-02-06T20:24:46.582Z,29.13
2023-02-06T20:27:15.151Z,29.80
2023-02-06T20:29:43.460Z,28.87
2023-02-06T20:32:12.163Z,29.73
2023-02-06T20:34:40.085Z,29.43
2023-02-06T20:37:09.421Z,28.27
2023-02-06T20:39:37.746Z,28.80
2023-02-06T20:42:06.142Z,28.30
2023-02-06T20:44:34.288Z,28.57
2023-02-06T20:47:02.408Z,40.63
2023-02-06T20:49:31.983Z,41.43
2023-02-06T20:52:03.364Z,34.07
2023-02-06T20:54:32.989Z,31.63
2023-02-06T20:57:01.294Z,29.50
2023-02-06T20:59:29.426Z,31.07
2023-02-06T21:01:58.265Z,30.13
2023-02-06T21:04:26.862Z,30.77
2023-02-06T21:06:55.652Z,30.30
2023-02-06T21:09:23.821Z,29.83
2023-02-06T21:11:53.253Z,28.40
2023-02-06T21:14:22.110Z,28.30
2023-02-06T21:16:50.873Z,30.77
2023-02-06T21:19:21.140Z,30.43
2023-02-06T21:21:49.908Z,30.47
2023-02-06T21:24:19.085Z,30.50
2023-02-06T21:26:47.128Z,29.37
2023-02-06T21:29:17.017Z,30.33
2023-02-06T21:31:46.274Z,29.57
2023-02-06T21:34:16.710Z,29.03
2023-02-06T21:36:45.013Z,29.50
2023-02-06T21:39:17.120Z,29.63
2023-02-06T21:41:45.223Z,28.80
2023-02-06T21:44:13.439Z,30.33
2023-02-06T21:46:42.925Z,30.70
2023-02-06T21:49:11.621Z,30.10
2023-02-06T21:51:39.898Z,30.07
2023-02-06T21:54:07.995Z,30.57
2023-02-06T21:56:38.309Z,29.13
2023-02-06T21:59:07.116Z,29.60
2023-02-06T22:01:35.520Z,28.27
2023-02-06T22:04:20.931Z,29.47
2023-02-06T22:06:49.146Z,29.60
2023-02-06T22:09:20.172Z,30.33
2023-02-06T22:11:48.619Z,29.93
2023-02-06T22:14:18.390Z,29.70
2023-02-06T22:16:47.713Z,29.90
2023-02-06T22:19:17.825Z,29.80
2023-02-06T22:21:46.153Z,30.53
2023-02-06T22:24:14.366Z,32.30
2023-02-06T22:26:43.118Z,29.67
2023-02-06T22:29:13.668Z,30.33
2023-02-06T22:31:43.317Z,30.63
2023-02-06T22:34:17.906Z,30.23
2023-02-06T22:36:46.143Z,30.67
2023-02-06T22:39:15.443Z,30.07
2023-02-06T22:41:45.135Z,29.80
2023-02-06T22:44:16.489Z,29.50
2023-02-06T22:46:46.161Z,30.40
2023-02-06T22:49:14.324Z,29.00
2023-02-06T22:51:44.420Z,29.87
2023-02-06T22:54:14.074Z,29.00
2023-02-06T22:56:43.074Z,29.10
2023-02-06T22:59:13.036Z,28.80
2023-02-06T23:01:43.363Z,28.93
2023-02-06T23:04:13.971Z,29.67
2023-02-06T23:06:44.367Z,30.67
2023-02-06T23:09:15.244Z,30.57
2023-02-06T23:11:43.899Z,30.73
2023-02-06T23:14:13.598Z,30.37
2023-02-06T23:16:42.085Z,31.13
2023-02-06T23:19:11.595Z,30.10
2023-02-06T23:21:41.686Z,31.23
2023-02-06T23:24:12.298Z,29.83
2023-02-06T23:26:42.692Z,29.90
2023-02-06T23:29:15.898Z,30.07
2023-02-06T23:31:44.935Z,30.90
2023-02-06T23:34:13.145Z,28.73
2023-02-06T23:36:41.495Z,29.03
2023-02-06T23:39:12.020Z,28.43
2023-02-06T23:41:40.312Z,28.37
2023-02-06T23:44:09.313Z,29.03
2023-02-06T23:46:39.183Z,29.50
2023-02-06T23:49:07.815Z,28.50
2023-02-06T23:51:36.597Z,28.60
2023-02-06T23:54:05.357Z,28.97
2023-02-06T23:56:35.330Z,27.97
2023-02-06T23:59:05.133Z,27.97
